createdAt,value
2018-05-24T00:00:43.265Z,20.05
2018-05-24T00:03:12.128Z,20.02
2018-05-24T00:05:39.787Z,20.03
2018-05-24T00:08:07.403Z,19.98
2018-05-24T00:10:35.145Z,19.93
2018-05-24T00:13:02.894Z,19.91
2018-05-24T00:15:30.593Z,19.91
2018-05-24T00:17:58.516Z,19.89
2018-05-24T00:20:26.183Z,19.86
2018-05-24T00:22:53.842Z,19.83
2018-05-24T00:27:55.437Z,19.76
2018-05-24T00:30:23.129Z,19.63
2018-05-24T00:32:52.690Z,19.69
2018-05-24T00:35:20.642Z,19.64
2018-05-24T00:37:48.388Z,19.58
2018-05-24T00:40:16.074Z,19.54
2018-05-24T00:45:17.627Z,19.44
2018-05-24T00:47:45.385Z,19.45
2018-05-24T00:50:13.054Z,19.50
2018-05-24T00:52:40.765Z,19.48
2018-05-24T00:55:20.064Z,19.44
2018-05-24T00:57:47.706Z,19.43
2018-05-24T01:02:49.129Z,19.28
2018-05-24T01:05:16.782Z,19.32
2018-05-24T01:07:44.433Z,19.26
2018-05-24T01:10:12.948Z,19.26
2018-05-24T01:12:40.651Z,19.34
2018-05-24T01:15:08.349Z,19.29
2018-05-24T01:17:36.064Z,19.23
2018-05-24T01:20:03.660Z,19.29
2018-05-24T01:22:31.227Z,19.34
2018-05-24T01:24:58.860Z,19.30
2018-05-24T01:27:26.630Z,19.31
2018-05-24T01:29:54.178Z,19.25
2018-05-24T01:32:22.035Z,19.29
2018-05-24T01:34:49.771Z,19.20
2018-05-24T01:37:29.129Z,19.22
2018-05-24T01:39:56.843Z,19.20
2018-05-24T01:42:24.406Z,19.23
2018-05-24T01:44:51.979Z,19.16
2018-05-24T01:47:20.853Z,19.18
2018-05-24T01:49:48.507Z,19.17
2018-05-24T01:52:16.120Z,19.16
2018-05-24T01:54:43.803Z,19.16
2018-05-24T02:02:51.608Z,19.02
2018-05-24T02:05:19.252Z,18.98
2018-05-24T02:07:46.923Z,19.02
2018-05-24T02:10:15.680Z,19.02
2018-05-24T02:12:43.291Z,19.07
2018-05-24T02:15:10.834Z,19.16
2018-05-24T02:17:38.437Z,19.10
2018-05-24T02:20:06.047Z,19.00
2018-05-24T02:22:33.593Z,18.99
2018-05-24T02:25:01.606Z,18.96
2018-05-24T02:27:29.190Z,18.96
2018-05-24T02:29:56.887Z,18.97
2018-05-24T02:32:24.594Z,18.96
2018-05-24T02:34:52.732Z,18.97
2018-05-24T02:37:20.401Z,18.94
2018-05-24T02:39:48.134Z,18.87
2018-05-24T02:42:15.879Z,18.79
2018-05-24T02:44:43.595Z,18.85
2018-05-24T02:47:12.448Z,18.85
2018-05-24T02:49:40.027Z,18.84
2018-05-24T02:52:07.661Z,18.88
2018-05-24T02:54:35.343Z,18.87
2018-05-24T02:57:03.861Z,18.86
2018-05-24T02:59:31.439Z,18.87
2018-05-24T03:01:58.977Z,18.86
2018-05-24T03:04:26.540Z,18.82
2018-05-24T03:06:54.097Z,18.77
2018-05-24T03:09:22.174Z,18.77
2018-05-24T03:11:49.821Z,18.69
2018-05-24T03:14:17.732Z,18.66
2018-05-24T03:16:45.411Z,18.66
2018-05-24T03:19:13.091Z,18.68
2018-05-24T03:21:40.840Z,18.60
2018-05-24T03:24:08.490Z,18.52
2018-05-24T03:26:36.891Z,18.50
2018-05-24T03:31:39.012Z,18.50
2018-05-24T03:34:07.108Z,18.46
2018-05-24T03:36:34.807Z,18.45
2018-05-24T03:39:02.480Z,18.44
2018-05-24T03:41:31.336Z,18.44
2018-05-24T03:43:58.996Z,18.45
2018-05-24T03:46:26.536Z,18.47
2018-05-24T03:48:54.092Z,18.48
2018-05-24T03:51:21.642Z,18.50
2018-05-24T03:53:49.206Z,18.45
2018-05-24T03:56:17.081Z,18.46
2018-05-24T03:58:44.728Z,18.51
2018-05-24T04:01:23.986Z,18.55
2018-05-24T04:03:51.649Z,18.60
2018-05-24T04:06:19.272Z,18.66
2018-05-24T04:08:47.231Z,18.73
2018-05-24T04:11:15.210Z,18.73
2018-05-24T04:13:42.907Z,18.75
2018-05-24T04:16:10.591Z,18.83
2018-05-24T04:18:38.238Z,18.87
2018-05-24T04:21:05.964Z,18.93
2018-05-24T04:23:33.671Z,19.00
2018-05-24T04:26:01.423Z,19.06
2018-05-24T04:28:29.144Z,19.13
2018-05-24T04:30:56.792Z,19.21
2018-05-24T04:33:26.708Z,19.30
2018-05-24T04:35:55.025Z,19.40
2018-05-24T04:38:23.805Z,19.48
2018-05-24T04:40:51.511Z,19.58
2018-05-24T04:43:19.213Z,19.62
2018-05-24T04:45:46.986Z,19.68
2018-05-24T04:48:14.676Z,19.75
2018-05-24T04:50:42.381Z,19.81
2018-05-24T04:53:10.016Z,19.91
2018-05-24T04:55:37.767Z,19.99
2018-05-24T04:58:05.464Z,20.01
2018-05-24T05:00:33.128Z,19.92
2018-05-24T05:03:01.264Z,19.98
2018-05-24T05:05:28.972Z,20.05
2018-05-24T05:07:56.604Z,20.04
2018-05-24T05:10:24.164Z,20.11
2018-05-24T05:12:51.758Z,20.06
2018-05-24T05:15:20.000Z,19.99
2018-05-24T05:17:47.693Z,20.07
2018-05-24T05:20:15.258Z,20.12
2018-05-24T05:22:42.800Z,20.23
2018-05-24T05:25:12.924Z,20.32
2018-05-24T05:27:40.720Z,20.39
2018-05-24T05:30:08.479Z,20.46
2018-05-24T05:32:36.116Z,20.53
2018-05-24T05:35:03.818Z,20.51
2018-05-24T05:37:32.682Z,20.60
2018-05-24T05:40:00.397Z,20.53
2018-05-24T05:42:28.247Z,20.41
2018-05-24T05:44:56.710Z,20.35
2018-05-24T05:47:25.666Z,20.51
2018-05-24T05:49:54.164Z,20.43
2018-05-24T05:52:22.249Z,20.39
2018-05-24T05:54:49.934Z,20.49
2018-05-24T05:57:17.656Z,20.34
2018-05-24T05:59:45.351Z,20.44
2018-05-24T06:02:13.506Z,20.64
2018-05-24T06:04:41.234Z,20.76
2018-05-24T06:07:09.820Z,20.88
2018-05-24T06:09:37.535Z,20.99
2018-05-24T06:12:05.175Z,20.91
2018-05-24T06:14:32.813Z,20.79
2018-05-24T06:17:00.475Z,20.79
2018-05-24T06:19:28.183Z,20.59
2018-05-24T06:24:32.156Z,20.92
2018-05-24T06:26:59.728Z,20.82
2018-05-24T06:29:27.860Z,20.88
2018-05-24T06:31:55.438Z,21.01
2018-05-24T06:34:24.717Z,21.22
2018-05-24T06:36:52.402Z,21.40
2018-05-24T06:41:54.951Z,21.66
2018-05-24T06:44:23.133Z,21.01
2018-05-24T06:46:51.363Z,21.15
2018-05-24T06:49:18.888Z,21.02
2018-05-24T06:51:47.323Z,21.30
2018-05-24T06:54:14.920Z,21.49
2018-05-24T06:56:43.432Z,21.65
2018-05-24T06:59:13.823Z,21.66
2018-05-24T07:01:41.422Z,21.56
2018-05-24T07:04:10.921Z,21.60
2018-05-24T07:06:38.601Z,21.67
2018-05-24T07:09:08.527Z,21.63
2018-05-24T07:11:36.122Z,21.81
2018-05-24T07:14:04.510Z,21.78
2018-05-24T07:16:34.290Z,21.97
2018-05-24T07:19:04.821Z,21.96
2018-05-24T07:21:32.454Z,22.12
2018-05-24T07:24:01.249Z,22.12
2018-05-24T07:26:28.886Z,22.02
2018-05-24T07:28:56.725Z,21.94
2018-05-24T07:31:26.155Z,22.03
2018-05-24T07:33:55.710Z,22.09
2018-05-24T07:36:23.452Z,22.04
2018-05-24T07:38:52.502Z,22.19
2018-05-24T07:41:20.858Z,22.09
2018-05-24T07:43:48.495Z,22.23
2018-05-24T07:46:17.844Z,22.22
2018-05-24T07:48:46.140Z,22.35
2018-05-24T07:51:14.092Z,22.14
2018-05-24T07:53:42.369Z,22.27
2018-05-24T07:56:13.985Z,21.87
2018-05-24T07:58:41.711Z,21.96
2018-05-24T08:01:11.309Z,22.28
2018-05-24T08:03:39.945Z,22.54
2018-05-24T08:06:08.454Z,22.65
2018-05-24T08:08:36.927Z,22.86
2018-05-24T08:11:05.292Z,22.91
2018-05-24T08:13:37.747Z,22.84
2018-05-24T08:16:10.353Z,23.00
2018-05-24T08:19:00.183Z,23.19
2018-05-24T08:21:30.485Z,23.29
2018-05-24T08:24:01.277Z,23.46
2018-05-24T08:26:31.408Z,23.61
2018-05-24T08:29:02.888Z,23.78
2018-05-24T08:31:35.005Z,23.86
2018-05-24T08:34:04.627Z,23.98
2018-05-24T08:36:33.421Z,24.10
2018-05-24T08:39:02.606Z,24.03
2018-05-24T08:41:30.706Z,24.26
2018-05-24T08:43:58.382Z,24.50
2018-05-24T08:46:28.143Z,24.50
2018-05-24T08:48:57.190Z,24.56
2018-05-24T08:51:27.948Z,24.65
2018-05-24T08:54:00.846Z,24.54
2018-05-24T08:59:32.795Z,24.79
2018-05-24T09:02:04.840Z,24.90
2018-05-24T09:04:33.752Z,25.07
2018-05-24T09:09:50.137Z,24.98
2018-05-24T09:12:19.998Z,25.15
2018-05-24T09:14:48.854Z,25.49
2018-05-24T09:17:26.552Z,25.43
2018-05-24T09:19:57.961Z,25.51
2018-05-24T09:22:30.340Z,25.65
2018-05-24T09:25:07.669Z,25.92
2018-05-24T09:30:40.964Z,24.83
2018-05-24T09:33:10.394Z,24.81
2018-05-24T09:35:39.824Z,24.18
2018-05-24T09:38:19.031Z,24.75
2018-05-24T09:40:49.737Z,24.81
2018-05-24T09:43:23.801Z,24.73
2018-05-24T09:45:57.622Z,24.74
2018-05-24T09:48:28.823Z,24.74
2018-05-24T09:50:59.548Z,24.67
2018-05-24T09:53:28.008Z,24.71
2018-05-24T09:56:06.588Z,24.25
2018-05-24T09:58:39.056Z,24.33
2018-05-24T10:01:06.826Z,24.47
2018-05-24T10:03:39.371Z,24.67
2018-05-24T10:06:16.736Z,24.26
2018-05-24T10:08:47.385Z,24.69
2018-05-24T10:11:24.222Z,24.69
2018-05-24T10:13:52.804Z,24.77
2018-05-24T10:16:21.860Z,24.75
2018-05-24T10:18:50.972Z,24.79
2018-05-24T10:21:20.531Z,24.40
2018-05-24T10:23:49.742Z,24.40
2018-05-24T10:26:19.451Z,24.48
2018-05-24T10:28:51.365Z,24.46
2018-05-24T10:31:20.577Z,24.18
2018-05-24T10:33:51.129Z,24.14
2018-05-24T10:36:19.987Z,24.20
2018-05-24T10:38:51.648Z,24.02
2018-05-24T10:43:55.129Z,24.02
2018-05-24T10:46:26.924Z,23.99
2018-05-24T11:07:58.755Z,23.76
2018-05-24T11:10:51.617Z,23.74
2018-05-24T11:13:26.915Z,23.60
2018-05-24T11:15:59.113Z,23.59
2018-05-24T11:19:14.855Z,23.24
2018-05-24T11:21:52.654Z,22.65
2018-05-24T11:30:28.078Z,22.60
2018-05-24T11:33:08.884Z,22.70
2018-05-24T11:57:08.553Z,24.19
2018-05-24T11:59:49.627Z,24.24
2018-05-24T12:02:24.137Z,24.31
2018-05-24T12:04:57.023Z,23.95
2018-05-24T12:07:28.586Z,23.96
2018-05-24T12:09:57.784Z,24.07
2018-05-24T12:12:28.131Z,24.39
2018-05-24T12:14:56.572Z,24.63
2018-05-24T12:17:25.152Z,24.72
2018-05-24T12:19:52.782Z,24.63
2018-05-24T12:22:20.901Z,24.50
2018-05-24T12:24:51.123Z,24.54
2018-05-24T12:27:19.060Z,24.58
2018-05-24T12:29:47.902Z,24.59
2018-05-24T12:32:16.509Z,24.83
2018-05-24T12:34:45.164Z,24.88
2018-05-24T12:37:15.240Z,24.99
2018-05-24T12:39:42.906Z,25.09
2018-05-24T12:42:11.762Z,25.06
2018-05-24T12:44:39.480Z,24.78
2018-05-24T12:47:07.247Z,24.78
2018-05-24T12:49:34.873Z,24.40
2018-05-24T12:52:04.816Z,24.40
2018-05-24T12:54:33.407Z,24.62
2018-05-24T12:57:01.090Z,24.75
2018-05-24T12:59:28.843Z,24.77
2018-05-24T13:01:57.894Z,24.33
2018-05-24T13:04:31.715Z,23.46
2018-05-24T13:06:59.447Z,23.45
2018-05-24T13:09:28.918Z,23.43
2018-05-24T13:11:56.584Z,23.58
2018-05-24T13:14:24.184Z,23.69
2018-05-24T13:16:51.814Z,23.58
2018-05-24T13:19:19.481Z,23.65
2018-05-24T13:21:47.117Z,23.75
2018-05-24T13:24:14.735Z,23.76
2018-05-24T13:26:42.407Z,23.79
2018-05-24T13:29:10.285Z,23.49
2018-05-24T13:31:38.141Z,23.50
2018-05-24T13:34:06.098Z,23.54
2018-05-24T13:36:35.433Z,23.62
2018-05-24T13:39:03.171Z,23.75
2018-05-24T13:41:30.740Z,23.54
2018-05-24T13:43:58.886Z,23.59
2018-05-24T13:46:26.506Z,23.59
2018-05-24T13:48:54.220Z,23.64
2018-05-24T13:51:21.927Z,23.67
2018-05-24T13:53:49.628Z,23.76
2018-05-24T13:56:17.221Z,23.48
2018-05-24T13:58:46.057Z,23.58
2018-05-24T14:01:13.824Z,23.65
2018-05-24T14:03:41.557Z,23.76
2018-05-24T14:06:09.226Z,23.87
2018-05-24T14:08:37.982Z,23.87
2018-05-24T14:11:06.717Z,23.90
2018-05-24T14:16:09.519Z,23.84
2018-05-24T14:18:37.187Z,23.73
2018-05-24T14:21:04.815Z,23.79
2018-05-24T14:23:33.943Z,23.84
2018-05-24T14:26:01.657Z,23.92
2018-05-24T14:28:30.704Z,23.88
2018-05-24T14:30:58.496Z,23.89
2018-05-24T14:33:26.225Z,23.68
2018-05-24T14:35:54.516Z,23.82
2018-05-24T14:38:22.278Z,23.96
2018-05-24T14:40:49.895Z,24.01
2018-05-24T14:43:17.483Z,23.77
2018-05-24T14:45:45.325Z,23.83
2018-05-24T14:48:13.727Z,23.75
2018-05-24T14:50:41.360Z,23.87
2018-05-24T14:53:11.837Z,23.95
2018-05-24T14:55:40.567Z,23.98
2018-05-24T14:58:08.236Z,24.04
2018-05-24T15:00:35.929Z,24.10
2018-05-24T15:03:04.330Z,24.21
2018-05-24T15:05:32.231Z,24.12
2018-05-24T15:07:59.890Z,23.93
2018-05-24T15:10:27.572Z,23.97
2018-05-24T15:12:55.291Z,23.87
2018-05-24T15:15:22.968Z,23.64
2018-05-24T15:17:50.675Z,23.57
2018-05-24T15:20:20.645Z,23.71
2018-05-24T15:22:48.447Z,23.75
2018-05-24T15:25:20.245Z,23.85
2018-05-24T15:27:52.769Z,23.90
2018-05-24T15:30:21.796Z,23.86
2018-05-24T15:32:49.516Z,23.85
2018-05-24T15:35:17.349Z,23.83
2018-05-24T15:37:45.931Z,23.69
2018-05-24T15:40:13.521Z,23.46
2018-05-24T15:42:46.620Z,23.54
2018-05-24T15:45:17.322Z,23.48
2018-05-24T15:47:48.130Z,23.57
2018-05-24T15:50:17.573Z,23.59
2018-05-24T15:52:45.271Z,23.56
2018-05-24T15:55:14.272Z,23.63
2018-05-24T15:57:43.090Z,23.57
2018-05-24T16:00:13.581Z,23.68
2018-05-24T16:02:42.619Z,23.69
2018-05-24T16:05:12.364Z,23.75
2018-05-24T16:07:41.392Z,23.76
2018-05-24T16:10:09.771Z,23.81
2018-05-24T16:12:37.592Z,23.88
2018-05-24T16:15:05.409Z,23.81
2018-05-24T16:17:35.295Z,23.66
2018-05-24T16:20:08.307Z,23.61
2018-05-24T16:22:36.369Z,23.55
2018-05-24T16:25:04.001Z,23.57
2018-05-24T16:27:31.826Z,23.61
2018-05-24T16:29:59.498Z,23.56
2018-05-24T16:32:27.223Z,23.56
2018-05-24T16:34:54.969Z,23.46
2018-05-24T16:37:22.842Z,23.31
2018-05-24T16:39:50.579Z,23.32
2018-05-24T16:42:18.215Z,23.24
2018-05-24T16:44:45.854Z,23.22
2018-05-24T16:47:14.004Z,23.18
2018-05-24T16:49:41.864Z,23.21
2018-05-24T16:52:10.565Z,23.22
2018-05-24T16:54:38.948Z,23.04
2018-05-24T16:57:07.542Z,23.10
2018-05-24T16:59:35.862Z,23.08
2018-05-24T17:04:37.598Z,23.04
2018-05-24T17:07:09.172Z,23.07
2018-05-24T17:09:36.943Z,23.03
2018-05-24T17:12:06.138Z,22.99
2018-05-24T17:14:35.997Z,22.99
2018-05-24T17:17:03.689Z,23.02
2018-05-24T17:19:35.998Z,23.05
2018-05-24T17:22:03.573Z,23.06
2018-05-24T17:24:31.261Z,23.02
2018-05-24T17:27:00.401Z,22.99
2018-05-24T17:29:29.965Z,22.96
2018-05-24T17:31:58.689Z,22.91
2018-05-24T17:34:28.828Z,22.89
2018-05-24T17:36:58.689Z,22.89
2018-05-24T17:39:30.805Z,22.89
2018-05-24T17:42:00.247Z,22.84
2018-05-24T17:44:28.799Z,22.76
2018-05-24T17:46:59.464Z,22.65
2018-05-24T17:49:29.741Z,22.61
2018-05-24T17:51:57.957Z,22.55
2018-05-24T17:54:25.742Z,22.50
2018-05-24T17:56:54.674Z,22.42
2018-05-24T17:59:24.743Z,22.36
2018-05-24T18:01:52.296Z,22.29
2018-05-24T18:04:20.453Z,22.26
2018-05-24T18:06:48.168Z,22.19
2018-05-24T18:09:16.699Z,22.10
2018-05-24T18:11:44.267Z,22.03
2018-05-24T18:14:13.798Z,21.98
2018-05-24T18:16:41.513Z,21.89
2018-05-24T18:22:09.681Z,21.79
2018-05-24T18:24:37.791Z,21.84
2018-05-24T18:27:05.520Z,21.82
2018-05-24T18:29:35.015Z,21.83
2018-05-24T18:32:04.574Z,21.80
2018-05-24T18:34:33.304Z,21.54
2018-05-24T18:37:01.215Z,21.66
2018-05-24T18:39:31.064Z,21.65
2018-05-24T18:41:59.681Z,21.61
2018-05-24T18:44:31.853Z,21.40
2018-05-24T18:47:03.327Z,21.24
2018-05-24T18:49:38.401Z,21.17
2018-05-24T18:52:08.082Z,21.18
2018-05-24T18:54:37.411Z,21.18
2018-05-24T18:57:06.591Z,21.16
2018-05-24T18:59:35.828Z,21.15
2018-05-24T19:02:05.205Z,21.09
2018-05-24T19:04:32.966Z,21.02
2018-05-24T19:07:01.277Z,21.00
2018-05-24T19:09:29.059Z,20.76
2018-05-24T19:11:58.216Z,20.63
2018-05-24T19:14:28.696Z,20.65
2018-05-24T19:16:57.507Z,20.72
2018-05-24T19:19:26.551Z,20.76
2018-05-24T19:21:59.309Z,20.83
2018-05-24T19:24:27.354Z,20.79
2018-05-24T19:26:56.263Z,20.73
2018-05-24T19:29:23.983Z,20.67
2018-05-24T19:31:51.605Z,20.68
2018-05-24T19:34:19.179Z,20.66
2018-05-24T19:36:46.793Z,20.64
2018-05-24T19:39:14.395Z,20.60
2018-05-24T19:41:43.051Z,20.57
2018-05-24T19:44:10.919Z,20.55
2018-05-24T19:46:39.701Z,20.52
2018-05-24T19:49:13.499Z,20.53
2018-05-24T19:51:46.679Z,20.51
2018-05-24T19:54:15.338Z,20.37
2018-05-24T19:56:42.968Z,20.47
2018-05-24T19:59:10.682Z,20.45
2018-05-24T20:01:38.347Z,20.37
2018-05-24T20:04:06.402Z,20.39
2018-05-24T20:06:34.113Z,20.38
2018-05-24T20:09:01.784Z,20.36
2018-05-24T20:11:29.488Z,20.32
2018-05-24T20:13:57.200Z,20.30
2018-05-24T20:16:24.888Z,20.26
2018-05-24T20:18:52.666Z,20.29
2018-05-24T20:21:20.517Z,20.25
2018-05-24T20:23:48.231Z,20.24
2018-05-24T20:26:15.879Z,20.19
2018-05-24T20:28:44.716Z,20.17
2018-05-24T20:31:13.305Z,20.13
2018-05-24T20:33:42.273Z,20.07
2018-05-24T20:36:10.067Z,20.01
2018-05-24T20:38:37.840Z,19.96
2018-05-24T20:41:05.533Z,19.92
2018-05-24T20:43:34.027Z,19.85
2018-05-24T20:46:01.599Z,19.80
2018-05-24T20:48:29.237Z,19.76
2018-05-24T20:51:01.404Z,19.70
2018-05-24T20:53:30.351Z,19.70
2018-05-24T20:55:58.062Z,19.62
2018-05-24T20:58:25.756Z,19.70
2018-05-24T21:00:53.483Z,19.68
2018-05-24T21:03:22.406Z,19.51
2018-05-24T21:05:50.167Z,19.43
2018-05-24T21:08:17.859Z,19.43
2018-05-24T21:10:45.602Z,19.40
2018-05-24T21:13:13.398Z,19.42
2018-05-24T21:15:42.321Z,19.46
2018-05-24T21:18:09.975Z,19.43
2018-05-24T21:20:37.713Z,19.32
2018-05-24T21:23:05.377Z,19.33
2018-05-24T21:25:34.795Z,19.31
2018-05-24T21:28:02.549Z,19.30
2018-05-24T21:30:30.259Z,19.24
2018-05-24T21:32:57.830Z,19.15
2018-05-24T21:35:25.560Z,19.06
2018-05-24T21:37:53.127Z,19.05
2018-05-24T21:40:20.664Z,19.04
2018-05-24T21:42:48.292Z,19.04
2018-05-24T21:45:16.049Z,19.07
2018-05-24T21:47:43.582Z,19.09
2018-05-24T21:50:11.343Z,19.05
2018-05-24T21:52:39.113Z,19.08
2018-05-24T21:55:06.799Z,18.98
2018-05-24T21:57:36.073Z,18.97
2018-05-24T22:00:03.779Z,18.99
2018-05-24T22:02:36.492Z,19.03
2018-05-24T22:05:05.003Z,19.05
2018-05-24T22:07:33.092Z,19.06
2018-05-24T22:10:01.518Z,19.02
2018-05-24T22:12:29.633Z,18.96
2018-05-24T22:14:57.322Z,18.89
2018-05-24T22:17:25.455Z,18.89
2018-05-24T22:22:44.918Z,18.77
2018-05-24T22:25:13.408Z,18.78
2018-05-24T22:27:41.107Z,18.84
2018-05-24T22:30:08.776Z,18.90
2018-05-24T22:32:46.178Z,18.95
2018-05-24T22:35:30.383Z,18.97
2018-05-24T22:40:53.235Z,19.03
2018-05-24T22:43:31.710Z,18.90
2018-05-24T22:45:59.356Z,18.95
2018-05-24T22:48:27.019Z,18.96
2018-05-24T22:50:54.725Z,19.02
2018-05-24T22:53:22.732Z,19.05
2018-05-24T22:55:50.548Z,19.08
2018-05-24T22:58:18.389Z,19.12
2018-05-24T23:00:46.059Z,19.07
2018-05-24T23:03:13.909Z,19.03
2018-05-24T23:05:41.613Z,19.06
2018-05-24T23:08:09.304Z,19.06
2018-05-24T23:10:37.013Z,19.07
2018-05-24T23:13:04.653Z,19.07
2018-05-24T23:15:32.377Z,19.09
2018-05-24T23:18:00.044Z,19.10
2018-05-24T23:20:27.725Z,19.06
2018-05-24T23:22:55.458Z,19.03
2018-05-24T23:25:24.069Z,18.99
2018-05-24T23:27:51.677Z,18.91
2018-05-24T23:30:22.096Z,18.75
2018-05-24T23:32:50.281Z,18.75
2018-05-24T23:35:17.963Z,18.77
2018-05-24T23:37:45.597Z,18.77
2018-05-24T23:40:13.216Z,18.73
2018-05-24T23:42:40.871Z,18.66
2018-05-24T23:45:08.480Z,18.65
2018-05-24T23:47:36.281Z,18.73
2018-05-24T23:50:03.940Z,18.70
2018-05-24T23:52:31.689Z,18.73
2018-05-24T23:54:59.349Z,18.74
2018-05-24T23:57:27.551Z,18.80
2018-05-24T23:59:55.254Z,18.81
